• Join FlightAware (Why Join?)
  • Login
  • US Flag 
10:31PM EST


 

Airport Tracker/Info


-or-


 

Live Flight TrackerFlight Track Log ✈ 9Y-BGI ✈ 12-Apr-2013 ✈ TAPA / ANU - TBPB / BGI

Flight Track Log - Related Links

Times and Time Zones

All times are in EDT time to prevent confusion due to time zone crossing. See the 9Y-BGI flight status page for this flight to view local times or setup timezone preferences in your user account.

Time Position Orientation Groundspeed Altitude Reporting Facility
EDT Latitude Longitude Course Direction KTS MPH feet Rate Location/Type
06:23PM 16.1774 -61.2400 151° Southeast  Level Estimated
06:24PM 16.0707 -61.1790 151° Southeast  Level Estimated
06:25PM 15.9640 -61.1180 151° Southeast  Level Estimated
06:26PM 15.8573 -61.0570 151° Southeast  Level Estimated
06:27PM 15.7506 -60.9962 151° Southeast  Level Estimated
06:28PM 15.6438 -60.9353 151° Southeast  Level Estimated
06:29PM 15.5371 -60.8746 151° Southeast  Level Estimated
06:30PM 15.4303 -60.8139 151° Southeast  Level Estimated
06:31PM 15.3235 -60.7533 151° Southeast  Level Estimated
06:32PM 15.2167 -60.6927 151° Southeast  Level Estimated
06:33PM 15.1098 -60.6322 151° Southeast  Level Estimated
06:34PM 15.0030 -60.5718 151° Southeast  Level Estimated
06:35PM 14.8961 -60.5114 151° Southeast  Level Estimated
06:36PM 14.7892 -60.4511 151° Southeast  Level Estimated
06:37PM 14.6823 -60.3909 151° Southeast  Level Estimated
06:38PM 14.5754 -60.3307 151° Southeast  Level Estimated
06:39PM 14.4685 -60.2705 151° Southeast  Level Estimated
06:40PM 14.3615 -60.2104 151° Southeast  Level Estimated
06:41PM 14.2546 -60.1504 151° Southeast  Level Estimated
06:42PM 14.1476 -60.0905 151° Southeast  Level Estimated
06:43PM 14.0406 -60.0305 151° Southeast  Level Estimated
06:44PM 13.9336 -59.9707 152° Southeast  Level Estimated
06:45PM 13.8266 -59.9109 152° Southeast  Level Estimated
06:46PM 13.7196 -59.8512 152° Southeast  Level Estimated
06:47PM 13.6125 -59.7915 152° Southeast  Level Estimated
06:48PM 13.5055 -59.7318 152° Southeast  Level Estimated
06:49PM 13.3984 -59.6723 152° Southeast  Level Estimated
06:50PM 13.2913 -59.6127 152° Southeast  Level Estimated
06:51PM 13.1842 -59.5532 152° Southeast  Level Estimated
06:52PM 13.0771 -59.4938 152° Southeast  Level Estimated
06:53PM 13.0746 -59.4925 152° Southeast  Level Estimated
06:54PM 13.0746 -59.4925 52° Northeast  Level Estimated
06:55PM 13.0746 -59.4925 52° Northeast  Level Estimated
06:56PM 13.0746 -59.4925 52° Northeast  Level Estimated
06:57PM 13.0746 -59.4925 52° Northeast  Level Estimated
06:58PM 13.0746 -59.4925 52° Northeast  Level Estimated
06:59PM 13.0746 -59.4925 52° Northeast  Level Estimated
07:00PM 13.0746 -59.4925 52° Northeast  Level Estimated
07:01PM 13.0746 -59.4925 52° Northeast  Level Estimated
07:02PM 13.0746 -59.4925 52° Northeast  Level Estimated
07:03PM 13.0746 -59.4925 52° Northeast  Level Estimated
07:04PM 13.0746 -59.4925 52° Northeast  Level Estimated
07:05PM 13.0746 -59.4925 52° Northeast  Level Estimated
07:06PM 13.0746 -59.4925 52° Northeast  Level Estimated
07:07PM 13.0746 -59.4925 52° Northeast  Level Estimated
07:08PM 13.0746 -59.4925 52° Northeast  Level Estimated